CheckWX is a tool to help pilots better visualize weather data.  It is not intended as a substitute for an official pre-flight weather briefing.

07:29:37 UTC

8B0 METAR
Steven A Bean Municipal Airport
Rangeley, Maine, USA
Current

35 mins ago

K8B0 270655Z AUTO 14008KT 10SM OVC020 01/M03 A2982 RMK AO2
Observed
Feb-27 @ 06:55 UTC
Wind
  • 140° at 8 KTS
Visibility
10 SM
Flight Rules
MVFR
Cloud Levels
  • Overcast at 2,000' AGL
Temperature
C / 34°F
Dewpoint
-3°C / 27°F
Humidity
75%
Altimeter
29.82" Hg
Pressure
1009.82 hPa
Previous

55 mins ago

K8B0 270635Z AUTO 12007KT 10SM OVC022 01/M03 A2983 RMK AO2
Observed
Feb-27 @ 06:35 UTC
Wind
  • 120° at 7 KTS
Visibility
10 SM
Flight Rules
MVFR
Cloud Levels
  • Overcast at 2,200' AGL
Temperature
C / 34°F
Dewpoint
-3°C / 27°F
Humidity
75%
Altimeter
29.83" Hg
Pressure
1010.12 hPa
Previous

1 hour ago

K8B0 270615Z AUTO 12005KT 10SM OVC026 01/M03 A2985 RMK AO2
Observed
Feb-27 @ 06:15 UTC
Wind
  • 120° at 5 KTS
Visibility
10 SM
Flight Rules
MVFR
Cloud Levels
  • Overcast at 2,600' AGL
Temperature
C / 34°F
Dewpoint
-3°C / 27°F
Humidity
75%
Altimeter
29.85" Hg
Pressure
1010.82 hPa